Time;durP1;ratioP1;P1;durP2;ratioP2;P2;SDS_P1;SDS_P2;PMS_P1;PMS_P2;Temp;Humidity;BMP_temperature;BMP_pressure;BME280_temperature;BME280_humidity;BME280_pressure;Samples;Min_cycle;Max_cycle;Signal;HPM_P1;HPM_P2
2024/02/11 00:01:09;;;;;;;35.92;22.67;;;9.70;99.90;;;;;;5050807;28;20639;-90
2024/02/11 00:03:37;;;;;;;43.03;24.33;;;9.70;99.90;;;;;;5050769;28;20189;-91
2024/02/11 00:06:08;;;;;;;40.83;22.80;;;9.60;99.90;;;;;;5045467;28;20212;-90
2024/02/11 00:08:34;;;;;;;40.92;22.83;;;9.60;99.90;;;;;;5049611;28;20189;-92
2024/02/11 00:11:00;;;;;;;42.63;24.50;;;9.60;99.90;;;;;;5048859;28;20257;-89
2024/02/11 00:13:28;;;;;;;40.88;23.38;;;9.60;99.90;;;;;;5048712;28;20194;-92
2024/02/11 00:15:54;;;;;;;37.88;23.35;;;9.60;99.90;;;;;;5049934;28;20211;-92
2024/02/11 00:18:22;;;;;;;40.75;24.50;;;9.70;99.90;;;;;;5048605;28;20330;-90
2024/02/11 00:20:47;;;;;;;38.25;22.38;;;9.60;99.90;;;;;;5045137;28;20547;-91
2024/02/11 00:23:13;;;;;;;40.92;23.05;;;9.60;99.90;;;;;;5050422;28;20193;-91
2024/02/11 00:25:39;;;;;;;45.78;25.65;;;9.60;99.90;;;;;;5045812;28;20189;-91
2024/02/11 00:28:09;;;;;;;40.85;24.70;;;9.60;99.90;;;;;;5047167;28;20186;-90
2024/02/11 00:30:39;;;;;;;45.92;23.42;;;9.50;99.90;;;;;;5494680;22;20719;-86
2024/02/11 00:33:05;;;;;;;48.33;24.73;;;9.50;99.90;;;;;;5033074;28;20191;-85
2024/02/11 00:35:30;;;;;;;43.38;22.98;;;9.50;99.90;;;;;;5034313;28;20185;-86
2024/02/11 00:37:58;;;;;;;47.75;24.77;;;9.50;99.90;;;;;;5034123;28;20293;-86
2024/02/11 00:40:24;;;;;;;49.15;24.23;;;9.40;99.90;;;;;;5042002;28;20720;-85
2024/02/11 00:42:51;;;;;;;42.60;23.08;;;9.40;99.90;;;;;;5041428;28;20272;-84
2024/02/11 00:45:18;;;;;;;44.10;23.42;;;9.40;99.90;;;;;;5049334;28;20758;-85
2024/02/11 00:47:47;;;;;;;42.25;22.73;;;9.40;99.90;;;;;;5037902;28;20178;-85
2024/02/11 00:50:13;;;;;;;45.47;24.38;;;9.40;99.90;;;;;;5036918;28;20273;-84
2024/02/11 00:52:45;;;;;;;44.35;23.60;;;9.30;99.90;;;;;;5037007;28;20273;-87
2024/02/11 00:55:14;;;;;;;50.50;23.13;;;9.40;99.90;;;;;;5036812;28;20281;-86
2024/02/11 00:57:41;;;;;;;43.10;23.58;;;9.30;99.90;;;;;;5037207;28;20241;-85
2024/02/11 01:00:11;;;;;;;45.55;22.85;;;9.30;99.90;;;;;;5044439;28;20182;-86
2024/02/11 01:02:38;;;;;;;47.35;23.55;;;9.30;99.90;;;;;;5041120;28;20491;-87
2024/02/11 01:05:05;;;;;;;44.47;23.05;;;9.30;99.90;;;;;;5036359;28;20225;-85
2024/02/11 01:07:41;;;;;;;46.75;23.90;;;9.30;99.90;;;;;;5042522;28;20273;-84
2024/02/11 01:10:12;;;;;;;62.22;22.75;;;9.30;99.90;;;;;;5036565;28;20188;-85
2024/02/11 01:12:44;;;;;;;47.78;23.60;;;9.30;99.90;;;;;;5036151;28;20524;-85
2024/02/11 01:15:13;;;;;;;50.72;23.75;;;9.20;99.90;;;;;;5035897;28;20178;-86
2024/02/11 01:17:40;;;;;;;47.80;23.58;;;9.20;99.90;;;;;;5036194;28;20268;-85
2024/02/11 01:20:14;;;;;;;50.35;23.85;;;9.20;99.90;;;;;;5035645;28;20281;-86
2024/02/11 01:22:42;;;;;;;50.38;23.45;;;9.20;99.90;;;;;;5037136;28;20174;-86
2024/02/11 01:25:10;;;;;;;51.42;24.20;;;9.20;99.90;;;;;;5045450;28;20523;-86
2024/02/11 01:27:37;;;;;;;49.22;23.13;;;9.20;99.90;;;;;;5044301;28;20628;-85
2024/02/11 01:30:05;;;;;;;50.45;23.48;;;9.10;99.90;;;;;;5043296;28;20311;-85
2024/02/11 01:32:31;;;;;;;52.42;23.02;;;9.20;99.90;;;;;;5040584;28;20220;-90
2024/02/11 01:34:56;;;;;;;47.03;22.65;;;9.20;99.90;;;;;;5036044;28;20186;-85
2024/02/11 01:37:22;;;;;;;50.17;23.83;;;9.20;99.90;;;;;;5035002;28;20203;-85
2024/02/11 01:39:48;;;;;;;52.63;24.17;;;9.20;99.90;;;;;;5035932;28;20649;-85
2024/02/11 01:42:14;;;;;;;48.92;24.15;;;9.10;99.90;;;;;;5062718;28;20315;-84
2024/02/11 01:44:39;;;;;;;55.58;24.38;;;9.20;99.90;;;;;;5040994;28;20174;-85
2024/02/11 01:47:05;;;;;;;48.55;23.30;;;9.10;99.90;;;;;;5036739;28;20241;-86
2024/02/11 01:49:32;;;;;;;49.97;23.83;;;9.10;99.90;;;;;;5036511;28;20636;-85
2024/02/11 01:52:00;;;;;;;50.22;24.42;;;9.10;99.90;;;;;;5036363;28;20174;-87
2024/02/11 01:54:29;;;;;;;51.72;23.02;;;9.20;99.90;;;;;;5036029;28;20269;-86
2024/02/11 01:56:55;;;;;;;48.10;23.38;;;9.10;99.90;;;;;;5042298;28;20186;-86
2024/02/11 01:59:22;;;;;;;49.70;24.65;;;9.10;99.90;;;;;;5040907;28;20289;-86
2024/02/11 02:01:49;;;;;;;49.40;23.55;;;9.10;99.90;;;;;;5041027;28;20746;-85
2024/02/11 02:04:15;;;;;;;55.58;25.80;;;9.10;99.90;;;;;;5034820;28;20656;-85
2024/02/11 02:06:42;;;;;;;54.53;25.52;;;9.10;99.90;;;;;;5034952;28;20186;-87
2024/02/11 02:09:11;;;;;;;54.55;24.30;;;9.10;99.90;;;;;;5042779;28;20509;-86
2024/02/11 02:11:38;;;;;;;45.60;23.52;;;9.10;99.90;;;;;;5034699;28;20213;-85
2024/02/11 02:14:05;;;;;;;51.33;24.67;;;9.10;99.90;;;;;;5034336;28;20663;-85
2024/02/11 02:16:31;;;;;;;49.67;24.23;;;9.10;99.90;;;;;;5048867;28;20242;-85
2024/02/11 02:18:57;;;;;;;52.22;25.02;;;9.10;99.90;;;;;;5037115;28;20207;-85
2024/02/11 02:21:27;;;;;;;52.17;26.42;;;9.10;99.90;;;;;;5035955;28;20174;-86
2024/02/11 02:23:53;;;;;;;56.15;25.10;;;9.10;99.90;;;;;;5035592;28;20213;-85
2024/02/11 02:26:19;;;;;;;52.33;26.08;;;9.10;99.90;;;;;;5035616;28;20210;-85
2024/02/11 02:28:44;;;;;;;54.22;25.85;;;9.10;99.90;;;;;;5042349;28;20178;-85
2024/02/11 02:31:10;;;;;;;59.75;25.95;;;9.10;99.90;;;;;;5045961;28;20232;-87
2024/02/11 02:33:37;;;;;;;60.53;27.33;;;9.10;99.90;;;;;;5053821;28;20177;-94
2024/02/11 02:36:04;;;;;;;53.85;25.95;;;9.10;99.90;;;;;;5046430;28;20643;-86
2024/02/11 02:38:30;;;;;;;66.50;27.55;;;9.10;99.90;;;;;;5039214;28;20252;-90
2024/02/11 02:40:56;;;;;;;62.15;27.00;;;9.10;99.90;;;;;;5064722;28;20180;-85
2024/02/11 02:43:24;;;;;;;57.15;27.58;;;9.10;99.90;;;;;;5038698;28;20182;-89
2024/02/11 02:45:50;;;;;;;64.07;27.70;;;9.20;99.90;;;;;;5049594;28;20270;-91
2024/02/11 02:48:16;;;;;;;58.63;27.92;;;9.10;99.90;;;;;;5073563;28;20201;-87
2024/02/11 02:50:43;;;;;;;57.92;27.58;;;9.10;99.90;;;;;;5038980;28;20182;-90
2024/02/11 02:53:10;;;;;;;62.88;29.45;;;9.10;99.90;;;;;;5057313;28;20268;-86
2024/02/11 02:55:37;;;;;;;70.03;29.38;;;9.10;99.90;;;;;;5053330;28;20619;-86
2024/02/11 02:58:08;;;;;;;64.20;29.77;;;9.20;99.90;;;;;;5059094;28;20335;-87
2024/02/11 03:00:34;;;;;;;67.93;29.45;;;9.10;99.90;;;;;;5052264;28;20189;-87
2024/02/11 03:03:05;;;;;;;66.15;29.83;;;9.10;99.90;;;;;;5039813;28;20186;-86
2024/02/11 03:05:34;;;;;;;68.85;29.95;;;9.20;99.90;;;;;;5046705;28;20277;-86
2024/02/11 03:08:00;;;;;;;66.25;29.30;;;9.20;99.90;;;;;;5047518;28;20280;-86
2024/02/11 03:10:26;;;;;;;65.63;30.75;;;9.20;99.90;;;;;;5048174;28;20192;-85
2024/02/11 03:12:52;;;;;;;64.32;30.63;;;9.10;99.90;;;;;;5067102;28;20513;-86
2024/02/11 03:15:17;;;;;;;66.35;30.95;;;9.20;99.90;;;;;;5047157;28;20174;-85
2024/02/11 03:17:44;;;;;;;71.38;31.20;;;9.10;99.90;;;;;;5038211;28;20351;-87
2024/02/11 03:20:15;;;;;;;65.72;30.50;;;9.20;99.90;;;;;;5047586;28;20217;-85
2024/02/11 03:22:42;;;;;;;69.10;30.27;;;9.20;99.90;;;;;;5041227;28;20189;-90
2024/02/11 03:25:09;;;;;;;65.15;30.80;;;9.20;99.90;;;;;;5039490;28;20193;-86
2024/02/11 03:27:37;;;;;;;72.13;31.35;;;9.10;99.90;;;;;;5047222;28;20181;-88
2024/02/11 03:30:05;;;;;;;67.47;30.90;;;9.10;99.90;;;;;;5076097;28;20292;-85
2024/02/11 03:32:31;;;;;;;69.80;31.02;;;9.10;99.90;;;;;;5056701;28;20187;-86
2024/02/11 03:34:57;;;;;;;79.82;32.22;;;9.20;99.90;;;;;;5055111;28;20181;-87
2024/02/11 03:37:23;;;;;;;70.13;31.10;;;9.10;99.90;;;;;;5062569;28;20207;-95
2024/02/11 03:39:49;;;;;;;74.13;32.95;;;9.20;99.90;;;;;;5062803;28;20185;-85
2024/02/11 03:42:15;;;;;;;66.70;31.55;;;9.10;99.90;;;;;;5073555;28;20173;-94
2024/02/11 03:44:45;;;;;;;72.65;32.78;;;9.10;99.90;;;;;;5052191;28;20192;-89
2024/02/11 03:47:11;;;;;;;69.72;32.70;;;9.20;99.90;;;;;;5061124;28;20737;-86
2024/02/11 03:49:36;;;;;;;70.28;32.90;;;9.20;99.90;;;;;;5078612;28;20209;-85
2024/02/11 03:52:03;;;;;;;64.30;32.45;;;9.20;99.90;;;;;;5080212;28;20173;-85
2024/02/11 03:54:28;;;;;;;70.25;33.55;;;9.20;99.90;;;;;;5066973;28;20181;-86
2024/02/11 03:56:54;;;;;;;74.40;33.38;;;9.20;99.90;;;;;;5052604;28;20188;-92
2024/02/11 03:59:20;;;;;;;63.58;32.50;;;9.20;99.90;;;;;;5049854;28;20221;-91
2024/02/11 04:01:46;;;;;;;68.30;32.53;;;9.20;99.90;;;;;;5055849;28;20192;-91
2024/02/11 04:04:13;;;;;;;64.00;32.78;;;9.20;99.90;;;;;;5079741;28;20192;-90
2024/02/11 04:06:40;;;;;;;66.78;32.90;;;9.20;99.90;;;;;;5063703;28;20226;-87
2024/02/11 04:09:08;;;;;;;62.55;31.83;;;9.20;99.90;;;;;;5073053;28;20169;-88
2024/02/11 04:11:35;;;;;;;69.03;33.10;;;9.30;99.90;;;;;;5052571;28;20183;-86
2024/02/11 04:14:02;;;;;;;58.53;31.30;;;9.20;99.90;;;;;;5052550;28;20174;-92
2024/02/11 04:16:28;;;;;;;65.90;32.78;;;9.20;99.90;;;;;;5058025;28;20181;-88
2024/02/11 04:18:54;;;;;;;64.38;32.47;;;9.30;99.90;;;;;;5076925;28;20234;-86
2024/02/11 04:21:22;;;;;;;57.28;31.67;;;9.20;99.90;;;;;;5061578;28;20184;-85
2024/02/11 04:23:48;;;;;;;64.55;32.13;;;9.30;99.90;;;;;;5063291;28;20272;-88
2024/02/11 04:26:15;;;;;;;62.60;32.45;;;9.30;99.90;;;;;;5076782;28;20611;-86
2024/02/11 04:28:41;;;;;;;59.13;31.50;;;9.30;99.90;;;;;;5059919;28;20185;-91
2024/02/11 04:31:11;;;;;;;60.15;31.15;;;9.30;99.90;;;;;;5082351;28;20221;-94
2024/02/11 04:33:39;;;;;;;57.40;30.40;;;9.30;99.90;;;;;;5067487;28;20617;-86
2024/02/11 04:36:11;;;;;;;56.00;31.27;;;9.30;99.90;;;;;;5058409;28;20187;-85
2024/02/11 04:38:37;;;;;;;61.17;31.95;;;9.30;99.90;;;;;;5059485;28;20271;-86
2024/02/11 04:41:05;;;;;;;54.92;30.65;;;9.30;99.90;;;;;;5064140;28;20335;-85
2024/02/11 04:43:34;;;;;;;56.22;29.67;;;9.30;99.90;;;;;;5061532;28;20177;-86
2024/02/11 04:46:02;;;;;;;63.65;31.60;;;9.30;99.90;;;;;;5084623;28;20188;-90
2024/02/11 04:48:31;;;;;;;54.15;29.52;;;9.30;99.90;;;;;;5059511;28;20615;-88
2024/02/11 04:51:01;;;;;;;54.13;29.67;;;9.30;99.90;;;;;;5066009;28;20177;-91
2024/02/11 04:53:30;;;;;;;54.75;29.67;;;9.30;99.90;;;;;;5076062;28;20188;-86
2024/02/11 04:55:57;;;;;;;55.80;29.73;;;9.30;99.90;;;;;;5046468;28;20249;-85
2024/02/11 04:58:26;;;;;;;56.97;30.48;;;9.30;99.90;;;;;;5060982;28;20296;-85
2024/02/11 05:00:53;;;;;;;52.25;29.27;;;9.30;99.90;;;;;;5060867;28;20496;-85
2024/02/11 05:03:19;;;;;;;51.42;28.85;;;9.30;99.90;;;;;;5036273;28;20246;-87
2024/02/11 05:05:47;;;;;;;54.35;28.92;;;9.30;99.90;;;;;;5059570;28;20208;-88
2024/02/11 05:08:19;;;;;;;53.67;28.98;;;9.30;99.90;;;;;;5060642;28;20184;-84
2024/02/11 05:10:46;;;;;;;50.33;29.13;;;9.30;99.90;;;;;;5043038;28;20180;-87
2024/02/11 05:13:16;;;;;;;56.03;30.67;;;9.30;99.90;;;;;;5043789;28;20231;-85
2024/02/11 05:15:43;;;;;;;53.83;30.67;;;9.30;99.90;;;;;;5059328;28;20905;-86
2024/02/11 05:18:11;;;;;;;55.60;32.03;;;9.30;99.90;;;;;;5076470;28;20231;-86
2024/02/11 05:20:38;;;;;;;65.50;32.88;;;9.30;99.90;;;;;;5076821;28;20181;-85
2024/02/11 05:23:09;;;;;;;63.58;31.67;;;9.30;99.90;;;;;;5058905;28;20188;-86
2024/02/11 05:25:35;;;;;;;62.20;33.10;;;9.30;99.90;;;;;;5058881;28;20220;-85
2024/02/11 05:28:09;;;;;;;57.15;31.52;;;9.30;99.90;;;;;;5076760;28;20181;-87
2024/02/11 05:30:42;;;;;;;58.88;30.85;;;9.30;99.90;;;;;;5055419;28;20237;-86
2024/02/11 05:33:09;;;;;;;57.85;31.33;;;9.30;99.90;;;;;;5045611;28;20178;-86
2024/02/11 05:35:39;;;;;;;51.83;30.02;;;9.40;99.90;;;;;;5039948;28;20182;-84
2024/02/11 05:38:09;;;;;;;54.05;31.70;;;9.30;99.90;;;;;;5035018;28;20337;-85
2024/02/11 05:40:36;;;;;;;55.60;31.15;;;9.30;99.90;;;;;;5034992;28;20178;-85
2024/02/11 05:43:05;;;;;;;55.28;30.70;;;9.30;99.90;;;;;;5036080;28;20179;-86
2024/02/11 05:45:32;;;;;;;55.33;30.08;;;9.20;99.90;;;;;;5043462;28;20182;-86
2024/02/11 05:47:58;;;;;;;55.10;31.65;;;9.30;99.90;;;;;;5051399;28;20185;-86
2024/02/11 05:50:27;;;;;;;52.20;30.13;;;9.30;99.90;;;;;;5035268;28;20190;-86
2024/02/11 05:52:54;;;;;;;57.83;32.72;;;9.20;99.90;;;;;;5043158;28;20512;-85
2024/02/11 05:55:22;;;;;;;54.50;30.92;;;9.30;99.90;;;;;;5043293;28;20597;-84
2024/02/11 05:57:50;;;;;;;56.47;31.60;;;9.30;99.90;;;;;;5035994;28;20281;-86
2024/02/11 06:00:21;;;;;;;55.13;31.42;;;9.20;99.90;;;;;;5034875;28;20186;-85
2024/02/11 06:02:48;;;;;;;61.20;32.28;;;9.20;99.90;;;;;;5034201;28;20182;-86
2024/02/11 06:05:15;;;;;;;55.25;31.40;;;9.20;99.90;;;;;;5039532;28;20213;-85
2024/02/11 06:07:46;;;;;;;57.63;30.63;;;9.20;99.90;;;;;;5038529;28;20201;-86
2024/02/11 06:10:17;;;;;;;51.65;29.98;;;9.20;99.90;;;;;;5071162;28;20212;-87
2024/02/11 06:12:44;;;;;;;52.42;30.38;;;9.20;99.90;;;;;;5039805;28;20636;-86
2024/02/11 06:15:14;;;;;;;50.97;29.85;;;9.20;99.90;;;;;;5034145;28;20201;-86
2024/02/11 06:17:43;;;;;;;52.58;31.98;;;9.20;99.90;;;;;;5034049;28;20276;-85
2024/02/11 06:20:13;;;;;;;53.78;30.00;;;9.20;99.90;;;;;;5035356;28;20182;-85
2024/02/11 06:22:42;;;;;;;52.40;29.88;;;9.20;99.90;;;;;;5042976;28;20253;-87
2024/02/11 06:25:09;;;;;;;53.13;29.60;;;9.20;99.90;;;;;;5037694;28;20217;-85
2024/02/11 06:27:38;;;;;;;55.60;31.10;;;9.20;99.90;;;;;;5035185;28;20182;-86
2024/02/11 06:30:14;;;;;;;51.40;29.65;;;9.20;99.90;;;;;;5038129;28;20245;-86
2024/02/11 06:32:41;;;;;;;51.65;29.25;;;9.20;99.90;;;;;;5041619;28;20264;-85
2024/02/11 06:35:09;;;;;;;55.20;31.17;;;9.20;99.90;;;;;;5065626;28;20173;-91
2024/02/11 06:37:38;;;;;;;59.13;31.17;;;9.20;99.90;;;;;;5039160;28;20205;-90
2024/02/11 06:40:10;;;;;;;55.47;30.73;;;9.20;99.90;;;;;;5057042;28;20186;-86
2024/02/11 06:42:40;;;;;;;59.35;30.45;;;9.20;99.90;;;;;;5038540;28;20246;-88
2024/02/11 06:45:08;;;;;;;57.40;31.60;;;9.20;99.90;;;;;;5058481;28;20185;-86
2024/02/11 06:47:37;;;;;;;59.80;31.70;;;9.20;99.90;;;;;;5058019;28;20200;-87
2024/02/11 06:50:07;;;;;;;53.75;30.40;;;9.20;99.90;;;;;;5076259;28;20205;-87
2024/02/11 06:52:32;;;;;;;58.03;31.08;;;9.20;99.90;;;;;;5057599;28;20235;-86
2024/02/11 06:55:00;;;;;;;58.10;30.38;;;9.20;99.90;;;;;;5059050;28;20242;-86
2024/02/11 06:57:26;;;;;;;56.03;30.88;;;9.20;99.90;;;;;;5075716;28;20264;-89
2024/02/11 06:59:54;;;;;;;55.05;31.45;;;9.20;99.90;;;;;;5059632;28;20257;-86
2024/02/11 07:02:20;;;;;;;58.65;30.92;;;9.20;99.90;;;;;;5058975;28;20550;-86
2024/02/11 07:04:46;;;;;;;63.05;31.50;;;9.20;99.90;;;;;;5055593;28;20184;-87
2024/02/11 07:07:12;;;;;;;56.63;30.85;;;9.20;99.90;;;;;;5058027;28;20519;-85
2024/02/11 07:09:41;;;;;;;57.63;31.40;;;9.20;99.90;;;;;;5057437;28;20243;-85
2024/02/11 07:12:06;;;;;;;55.33;30.33;;;9.20;99.90;;;;;;5054293;28;20186;-87
2024/02/11 07:14:32;;;;;;;58.30;31.65;;;9.20;99.90;;;;;;5055713;28;20255;-86
2024/02/11 07:17:00;;;;;;;65.55;32.83;;;9.20;99.90;;;;;;5038182;28;20361;-86
2024/02/11 07:19:28;;;;;;;61.03;31.67;;;9.20;99.90;;;;;;5037232;28;20221;-86
2024/02/11 07:21:54;;;;;;;59.40;31.30;;;9.30;99.90;;;;;;5055615;28;20170;-86
2024/02/11 07:24:20;;;;;;;56.28;32.08;;;9.20;99.90;;;;;;5037333;28;20186;-86
2024/02/11 07:26:47;;;;;;;55.63;30.75;;;9.20;99.90;;;;;;5046552;28;20180;-88
2024/02/11 07:29:14;;;;;;;54.33;31.15;;;9.20;99.90;;;;;;5063265;28;20181;-87
2024/02/11 07:31:41;;;;;;;56.90;31.20;;;9.30;99.90;;;;;;5056006;28;20222;-89
2024/02/11 07:34:07;;;;;;;57.38;30.45;;;9.30;99.90;;;;;;5055849;28;20260;-95
2024/02/11 07:36:33;;;;;;;55.83;31.00;;;9.30;99.90;;;;;;5037695;28;20621;-92
2024/02/11 07:38:58;;;;;;;54.80;30.90;;;9.20;99.90;;;;;;5054616;28;20213;-93
2024/02/11 07:41:24;;;;;;;54.15;30.63;;;9.30;99.90;;;;;;5038081;28;20264;-85
2024/02/11 07:43:52;;;;;;;55.65;31.33;;;9.20;99.90;;;;;;5036680;28;20193;-90
2024/02/11 07:46:19;;;;;;;57.55;31.30;;;9.30;99.90;;;;;;5037240;28;20359;-86
2024/02/11 07:48:46;;;;;;;60.28;31.27;;;9.30;99.90;;;;;;5053746;28;20174;-86
2024/02/11 07:51:15;;;;;;;54.08;29.42;;;9.20;99.90;;;;;;5035947;28;20232;-86
2024/02/11 07:53:42;;;;;;;57.72;31.55;;;9.30;99.90;;;;;;5035714;28;20182;-88
2024/02/11 07:56:15;;;;;;;57.78;31.40;;;9.20;99.90;;;;;;5034989;28;20207;-87
2024/02/11 07:58:41;;;;;;;54.15;30.08;;;9.20;99.90;;;;;;5053964;28;20259;-88
2024/02/11 08:01:07;;;;;;;61.05;30.73;;;9.20;99.90;;;;;;5035800;28;20181;-86
2024/02/11 08:03:33;;;;;;;61.38;30.67;;;9.30;99.90;;;;;;5053658;28;20651;-86
2024/02/11 08:05:59;;;;;;;57.83;31.42;;;9.20;99.90;;;;;;5035847;28;20309;-86
2024/02/11 08:08:25;;;;;;;54.28;30.50;;;9.30;99.90;;;;;;5035996;28;20268;-86
2024/02/11 08:10:52;;;;;;;57.13;30.88;;;9.20;99.90;;;;;;5053315;28;20174;-87
2024/02/11 08:13:18;;;;;;;55.80;31.60;;;9.20;99.90;;;;;;5035737;28;20182;-85
2024/02/11 08:15:46;;;;;;;61.72;31.33;;;9.20;99.90;;;;;;5035780;28;20216;-86
2024/02/11 08:18:13;;;;;;;60.60;31.67;;;9.20;99.90;;;;;;5035566;28;20300;-87
2024/02/11 08:20:39;;;;;;;60.53;31.25;;;9.20;99.90;;;;;;5053893;28;20173;-86
2024/02/11 08:23:05;;;;;;;58.00;31.48;;;9.20;99.90;;;;;;5053385;28;20177;-86
2024/02/11 08:25:31;;;;;;;59.80;30.98;;;9.30;99.90;;;;;;5035635;28;20184;-85
2024/02/11 08:27:57;;;;;;;58.90;30.90;;;9.30;99.90;;;;;;5053602;28;20253;-86
2024/02/11 08:30:24;;;;;;;61.25;30.92;;;9.20;99.90;;;;;;5033798;28;20816;-87
2024/02/11 08:32:50;;;;;;;63.35;31.00;;;9.20;99.90;;;;;;5034940;28;20289;-86
2024/02/11 08:35:21;;;;;;;66.70;32.70;;;9.20;99.90;;;;;;5040777;28;20276;-86
2024/02/11 08:37:47;;;;;;;72.43;32.80;;;9.20;99.90;;;;;;5033758;28;20197;-86
2024/02/11 08:40:13;;;;;;;65.50;32.97;;;9.30;99.90;;;;;;5040353;28;20190;-85
2024/02/11 08:42:42;;;;;;;62.47;32.33;;;9.20;99.90;;;;;;5039137;28;20186;-86
2024/02/11 08:45:08;;;;;;;63.72;31.92;;;9.20;99.90;;;;;;5041799;28;20179;-85
2024/02/11 08:47:34;;;;;;;62.25;30.95;;;9.20;99.90;;;;;;5033309;28;20182;-84
2024/02/11 08:50:00;;;;;;;68.60;33.95;;;9.30;99.90;;;;;;5032543;28;20175;-85
2024/02/11 08:52:26;;;;;;;69.55;32.10;;;9.20;99.90;;;;;;5046511;28;20213;-85
2024/02/11 08:54:52;;;;;;;64.18;32.53;;;9.20;99.90;;;;;;5054106;28;20213;-85
2024/02/11 08:57:22;;;;;;;55.75;30.85;;;9.20;99.90;;;;;;5053144;28;20285;-85
2024/02/11 08:59:48;;;;;;;70.30;31.60;;;9.20;99.90;;;;;;5035274;28;20190;-85
2024/02/11 09:02:17;;;;;;;64.22;31.52;;;9.20;99.90;;;;;;5035779;28;20174;-85
2024/02/11 09:04:43;;;;;;;63.33;32.10;;;9.20;99.90;;;;;;5038031;28;20185;-94
2024/02/11 09:07:10;;;;;;;65.47;32.78;;;9.20;99.90;;;;;;5038528;28;20182;-86
2024/02/11 09:09:36;;;;;;;63.65;31.50;;;9.10;99.90;;;;;;5050454;28;20209;-88
2024/02/11 09:12:03;;;;;;;66.15;33.08;;;9.10;99.90;;;;;;5062495;28;20512;-86
2024/02/11 09:14:32;;;;;;;66.68;32.10;;;9.20;99.90;;;;;;5065188;28;20292;-86
2024/02/11 09:17:00;;;;;;;58.65;30.95;;;9.10;99.90;;;;;;5070388;28;20181;-86
2024/02/11 09:19:27;;;;;;;65.38;32.47;;;9.20;99.90;;;;;;5070286;28;20229;-85
2024/02/11 09:21:59;;;;;;;57.90;31.17;;;9.20;99.90;;;;;;5068582;28;20196;-85
2024/02/11 09:24:25;;;;;;;66.03;30.92;;;9.20;99.90;;;;;;5055771;28;20188;-85
2024/02/11 09:26:52;;;;;;;69.65;33.50;;;9.20;99.90;;;;;;5047230;28;20178;-85
2024/02/11 09:29:20;;;;;;;64.60;33.03;;;9.10;99.90;;;;;;5056827;28;20178;-85
2024/02/11 09:31:46;;;;;;;69.93;33.20;;;9.10;99.90;;;;;;5054450;28;20258;-84
2024/02/11 09:34:12;;;;;;;66.80;31.33;;;9.20;99.90;;;;;;5045900;28;20527;-85
2024/02/11 09:36:41;;;;;;;70.13;33.55;;;9.10;99.90;;;;;;5036382;28;20206;-86
2024/02/11 09:39:10;;;;;;;65.55;31.17;;;9.20;99.90;;;;;;5044436;28;20256;-86
2024/02/11 09:41:37;;;;;;;66.47;31.98;;;9.20;99.90;;;;;;5036554;28;20487;-85
2024/02/11 09:44:04;;;;;;;65.25;31.52;;;9.20;99.90;;;;;;5038681;28;20198;-87
2024/02/11 09:46:37;;;;;;;66.25;31.98;;;9.20;99.90;;;;;;5046803;28;20178;-87
2024/02/11 09:49:30;;;;;;;64.47;31.10;;;9.20;99.90;;;;;;5054402;28;20178;-87
2024/02/11 09:52:00;;;;;;;67.13;29.90;;;9.20;99.90;;;;;;5051565;28;20275;-87
2024/02/11 09:54:29;;;;;;;57.72;30.60;;;9.30;99.90;;;;;;5033813;28;20210;-86
2024/02/11 09:56:55;;;;;;;68.20;32.83;;;9.20;99.90;;;;;;5051458;28;20842;-89
2024/02/11 09:59:26;;;;;;;62.75;31.35;;;9.20;99.90;;;;;;5046912;28;20778;-87
2024/02/11 10:01:54;;;;;;;62.30;29.85;;;9.30;99.90;;;;;;5049354;28;20185;-87
2024/02/11 10:04:28;;;;;;;58.78;32.22;;;9.30;99.90;;;;;;5049071;28;20179;-86
2024/02/11 10:07:23;;;;;;;61.83;29.80;;;9.30;99.90;;;;;;5035066;28;20178;-87
2024/02/11 10:09:52;;;;;;;62.05;30.45;;;9.30;99.90;;;;;;5055475;28;20197;-87
2024/02/11 10:12:19;;;;;;;65.82;30.85;;;9.20;99.90;;;;;;5047630;28;20185;-87
2024/02/11 10:14:57;;;;;;;61.88;31.52;;;9.30;99.90;;;;;;5046554;28;20273;-87
2024/02/11 10:17:23;;;;;;;63.05;31.95;;;9.30;99.90;;;;;;5049322;28;20218;-88
2024/02/11 10:19:53;;;;;;;65.47;30.52;;;9.30;99.90;;;;;;5050881;28;20200;-87
2024/02/11 10:22:20;;;;;;;64.35;31.20;;;9.30;99.90;;;;;;5054698;28;20210;-88
2024/02/11 10:24:51;;;;;;;58.60;30.20;;;9.30;99.90;;;;;;5054395;28;20186;-87
2024/02/11 10:27:18;;;;;;;60.38;31.20;;;9.30;99.90;;;;;;5048537;28;20178;-88
2024/02/11 10:29:47;;;;;;;62.95;31.42;;;9.30;99.90;;;;;;5056787;28;20212;-86
2024/02/11 10:32:14;;;;;;;64.60;30.38;;;9.20;99.90;;;;;;5071869;28;20173;-87
2024/02/11 10:34:43;;;;;;;63.10;30.38;;;9.30;99.90;;;;;;5042976;28;20273;-85
2024/02/11 10:37:15;;;;;;;68.97;31.58;;;9.20;99.90;;;;;;5057616;28;20529;-86
2024/02/11 10:39:41;;;;;;;65.55;30.95;;;9.20;99.90;;;;;;5057696;28;20291;-85
2024/02/11 10:42:08;;;;;;;64.80;31.38;;;9.20;99.90;;;;;;5057348;28;20648;-84
2024/02/11 10:44:38;;;;;;;64.43;31.20;;;9.20;99.90;;;;;;5057021;28;20562;-83
2024/02/11 10:47:06;;;;;;;61.63;30.90;;;9.30;99.90;;;;;;5075724;28;20177;-85
2024/02/11 10:49:32;;;;;;;72.70;32.78;;;9.30;99.90;;;;;;5075206;28;20177;-85
2024/02/11 10:52:05;;;;;;;58.00;30.13;;;9.30;99.90;;;;;;5058401;28;20238;-84
2024/02/11 10:54:41;;;;;;;65.30;30.08;;;9.30;99.90;;;;;;5057274;28;20181;-85
2024/02/11 10:57:19;;;;;;;63.13;29.35;;;9.20;99.90;;;;;;5049420;28;20216;-84
2024/02/11 10:59:57;;;;;;;66.47;30.60;;;9.20;99.90;;;;;;5058103;28;20212;-84
2024/02/11 11:02:25;;;;;;;67.95;30.27;;;9.20;99.90;;;;;;5053412;28;20177;-85
2024/02/11 11:04:57;;;;;;;56.20;25.73;;;9.30;99.90;;;;;;5056288;28;20558;-85
2024/02/11 11:07:24;;;;;;;50.47;24.25;;;9.20;99.90;;;;;;5074298;28;20176;-84
2024/02/11 11:09:50;;;;;;;47.83;22.67;;;9.20;99.90;;;;;;5074010;28;20201;-84
2024/02/11 11:12:17;;;;;;;56.17;23.77;;;9.10;99.90;;;;;;5056736;28;20234;-83
2024/02/11 11:14:49;;;;;;;46.40;22.63;;;9.10;99.90;;;;;;5063990;28;20185;-84
2024/02/11 11:17:20;;;;;;;41.95;21.38;;;9.00;99.90;;;;;;5047382;28;20181;-82
2024/02/11 11:19:50;;;;;;;48.08;22.67;;;9.00;99.90;;;;;;5039555;28;20240;-83
2024/02/11 11:22:24;;;;;;;46.72;20.50;;;8.90;99.90;;;;;;5046187;28;20183;-85
2024/02/11 11:24:57;;;;;;;42.08;19.67;;;8.90;99.90;;;;;;5054342;28;20181;-85
2024/02/11 11:27:25;;;;;;;36.88;17.70;;;8.90;99.90;;;;;;5044202;28;20202;-84
2024/02/11 11:29:54;;;;;;;36.83;18.30;;;8.90;99.90;;;;;;5041631;28;20220;-84
2024/02/11 11:32:23;;;;;;;35.00;17.75;;;8.80;99.90;;;;;;5066581;28;20166;-84
2024/02/11 11:34:53;;;;;;;32.13;16.50;;;8.80;99.90;;;;;;5044264;28;20189;-86
2024/02/11 11:37:19;;;;;;;32.80;16.90;;;8.80;99.90;;;;;;5065055;28;20502;-83
2024/02/11 11:39:45;;;;;;;32.65;16.33;;;8.80;99.90;;;;;;5055880;28;20223;-84
2024/02/11 11:42:11;;;;;;;28.52;15.35;;;8.70;99.90;;;;;;5052806;28;20182;-85
2024/02/11 11:44:38;;;;;;;30.70;14.70;;;8.70;99.90;;;;;;5051280;28;20176;-83
2024/02/11 11:47:05;;;;;;;30.02;14.85;;;8.80;99.90;;;;;;5043652;28;20213;-84
2024/02/11 11:49:33;;;;;;;28.30;14.25;;;8.70;99.90;;;;;;5056109;28;20176;-84
2024/02/11 11:51:59;;;;;;;27.77;13.75;;;8.80;99.90;;;;;;5056274;28;20177;-84
2024/02/11 11:54:29;;;;;;;25.63;13.43;;;8.80;99.90;;;;;;5056005;28;20173;-84
2024/02/11 11:56:58;;;;;;;30.50;15.35;;;8.80;99.90;;;;;;5071040;28;20689;-84
2024/02/11 11:59:25;;;;;;;26.60;13.02;;;8.80;99.90;;;;;;5070921;28;20209;-84
2024/02/11 12:01:52;;;;;;;28.25;14.07;;;8.80;99.90;;;;;;5041903;28;20188;-84
2024/02/11 12:04:18;;;;;;;28.55;12.95;;;8.70;99.90;;;;;;5052745;28;20625;-86
2024/02/11 12:06:45;;;;;;;28.40;13.13;;;8.70;99.90;;;;;;5035906;28;20498;-83
2024/02/11 12:09:14;;;;;;;26.05;12.50;;;8.70;99.90;;;;;;5038649;28;20184;-86
2024/02/11 12:11:44;;;;;;;25.15;12.43;;;8.70;99.90;;;;;;5042540;28;20180;-84
2024/02/11 12:14:11;;;;;;;25.10;12.52;;;8.70;99.90;;;;;;5042601;28;20824;-83
2024/02/11 12:16:37;;;;;;;27.45;12.10;;;8.70;99.90;;;;;;5055913;28;20169;-83
2024/02/11 12:19:04;;;;;;;26.73;12.17;;;8.70;99.90;;;;;;5034944;28;20217;-84
2024/02/11 12:21:31;;;;;;;21.75;11.98;;;8.70;99.90;;;;;;5054659;28;20184;-84
2024/02/11 12:24:04;;;;;;;21.05;11.65;;;8.70;99.90;;;;;;5035540;28;20209;-84
2024/02/11 12:26:30;;;;;;;22.85;12.60;;;8.70;99.90;;;;;;5037353;28;20172;-84
2024/02/11 12:28:58;;;;;;;26.60;13.02;;;8.70;99.90;;;;;;5062351;28;20208;-84
2024/02/11 12:31:26;;;;;;;27.08;13.27;;;8.70;99.90;;;;;;5037075;28;20230;-86
2024/02/11 12:33:53;;;;;;;22.55;11.95;;;8.70;99.90;;;;;;5037926;28;20184;-85
2024/02/11 12:36:25;;;;;;;28.55;12.55;;;8.70;99.90;;;;;;5054298;28;20211;-84
2024/02/11 12:38:53;;;;;;;27.80;13.30;;;8.60;99.90;;;;;;5055865;28;20292;-86